createdAt,value
2023-12-22T00:00:31.835Z,6.85
2023-12-22T00:01:31.913Z,6.87
2023-12-22T00:02:31.852Z,6.85
2023-12-22T00:03:31.911Z,6.83
2023-12-22T00:04:31.906Z,6.83
2023-12-22T00:05:31.938Z,6.85
2023-12-22T00:06:31.926Z,6.84
2023-12-22T00:07:31.997Z,6.83
2023-12-22T00:08:31.949Z,6.86
2023-12-22T00:09:31.980Z,6.89
2023-12-22T00:10:32.031Z,6.90
2023-12-22T00:11:32.016Z,6.84
2023-12-22T00:12:32.039Z,6.75
2023-12-22T00:13:34.324Z,6.63
2023-12-22T00:14:32.063Z,6.55
2023-12-22T00:15:32.091Z,6.56
2023-12-22T00:16:32.153Z,6.57
2023-12-22T00:17:32.169Z,6.55
2023-12-22T00:18:32.348Z,6.53
2023-12-22T00:19:32.260Z,6.48
2023-12-22T00:20:32.189Z,6.47
2023-12-22T00:21:33.089Z,6.52
2023-12-22T00:22:32.278Z,6.60
2023-12-22T00:23:32.232Z,6.63
2023-12-22T00:24:32.257Z,6.62
2023-12-22T00:25:32.283Z,6.61
2023-12-22T00:26:32.279Z,6.59
2023-12-22T00:27:32.313Z,6.59
2023-12-22T00:28:32.330Z,6.59
2023-12-22T00:29:32.353Z,6.59
2023-12-22T00:30:32.418Z,6.57
2023-12-22T00:31:32.422Z,6.57
2023-12-22T00:32:32.429Z,6.61
2023-12-22T00:33:32.467Z,6.64
2023-12-22T00:34:32.486Z,6.58
2023-12-22T00:35:32.467Z,6.52
2023-12-22T00:36:32.478Z,6.51
2023-12-22T00:37:32.607Z,6.53
2023-12-22T00:38:32.560Z,6.58
2023-12-22T00:39:32.603Z,6.57
2023-12-22T00:40:32.631Z,6.55
2023-12-22T00:41:32.589Z,6.54
2023-12-22T00:42:32.601Z,6.53
2023-12-22T00:43:32.651Z,6.50
2023-12-22T00:44:32.643Z,6.45
2023-12-22T00:45:32.658Z,6.45
2023-12-22T00:46:32.725Z,6.49
2023-12-22T00:47:32.733Z,6.55
2023-12-22T00:48:32.877Z,6.62
2023-12-22T00:49:32.845Z,6.62
2023-12-22T00:50:32.749Z,6.59
2023-12-22T00:51:32.778Z,6.62
2023-12-22T00:52:32.846Z,6.68
2023-12-22T00:53:32.810Z,6.77
2023-12-22T00:54:32.847Z,6.82
2023-12-22T00:55:32.885Z,6.84
2023-12-22T00:56:32.871Z,6.85
2023-12-22T00:57:32.886Z,6.84
2023-12-22T00:58:32.926Z,6.84
2023-12-22T00:59:32.995Z,6.87
2023-12-22T01:00:32.944Z,6.89
2023-12-22T01:01:33.013Z,6.92
2023-12-22T01:02:32.974Z,6.96
2023-12-22T01:03:33.072Z,6.98
2023-12-22T01:04:33.066Z,7.01
2023-12-22T01:05:33.222Z,7.04
2023-12-22T01:06:33.112Z,7.04
2023-12-22T01:07:33.193Z,7.03
2023-12-22T01:08:33.109Z,6.99
2023-12-22T01:09:33.108Z,6.93
2023-12-22T01:10:33.134Z,6.90
2023-12-22T01:11:33.165Z,6.88
2023-12-22T01:12:33.171Z,6.89
2023-12-22T01:13:33.243Z,6.93
2023-12-22T01:14:33.269Z,6.94
2023-12-22T01:15:33.215Z,6.91
2023-12-22T01:16:33.256Z,6.90
2023-12-22T01:17:33.357Z,6.91
2023-12-22T01:18:33.359Z,6.93
2023-12-22T01:19:33.343Z,6.96
2023-12-22T01:20:33.315Z,6.98
2023-12-22T01:21:33.322Z,6.95
2023-12-22T01:22:33.368Z,6.86
2023-12-22T01:23:33.368Z,6.81
2023-12-22T01:24:33.391Z,6.81
2023-12-22T01:25:33.413Z,6.82
2023-12-22T01:26:33.420Z,6.82
2023-12-22T01:27:33.448Z,6.80
2023-12-22T01:28:33.536Z,6.82
2023-12-22T01:29:33.493Z,6.83
2023-12-22T01:30:33.496Z,6.78
2023-12-22T01:31:33.550Z,6.72
2023-12-22T01:32:33.603Z,6.71
2023-12-22T01:33:33.581Z,6.73
2023-12-22T01:34:34.561Z,6.72
2023-12-22T01:35:33.614Z,6.71
2023-12-22T01:36:33.681Z,6.64
2023-12-22T01:37:33.677Z,6.62
2023-12-22T01:38:33.642Z,6.65
2023-12-22T01:39:33.690Z,6.70
2023-12-22T01:40:34.581Z,6.77
2023-12-22T01:41:33.703Z,6.77
2023-12-22T01:42:33.722Z,6.72
2023-12-22T01:43:33.803Z,6.73
2023-12-22T01:44:33.773Z,6.73
2023-12-22T01:45:33.806Z,6.75
2023-12-22T01:46:33.811Z,6.82
2023-12-22T01:47:33.842Z,6.83
2023-12-22T01:48:33.932Z,6.83
2023-12-22T01:49:33.983Z,6.88
2023-12-22T01:50:33.874Z,6.90
2023-12-22T01:51:33.893Z,6.87
2023-12-22T01:52:33.958Z,6.87
2023-12-22T01:53:36.363Z,6.92
2023-12-22T01:54:33.953Z,6.92
2023-12-22T01:55:34.013Z,6.93
2023-12-22T01:56:33.995Z,6.99
2023-12-22T01:57:34.002Z,6.99
2023-12-22T01:58:35.060Z,7.01
2023-12-22T01:59:34.070Z,7.01
2023-12-22T02:00:34.087Z,7.05
2023-12-22T02:01:34.107Z,7.03
2023-12-22T02:02:34.133Z,6.97
2023-12-22T02:03:34.183Z,6.98
2023-12-22T02:04:35.046Z,7.04
2023-12-22T02:05:34.165Z,6.97
2023-12-22T02:06:34.184Z,6.88
2023-12-22T02:07:34.239Z,6.92
2023-12-22T02:08:34.215Z,6.95
2023-12-22T02:09:34.264Z,6.96
2023-12-22T02:10:35.174Z,6.95
2023-12-22T02:11:34.268Z,6.88
2023-12-22T02:12:34.910Z,6.82
2023-12-22T02:13:34.325Z,6.81
2023-12-22T02:14:34.333Z,6.83
2023-12-22T02:15:34.338Z,6.88
2023-12-22T02:16:34.423Z,6.94
2023-12-22T02:17:34.398Z,6.97
2023-12-22T02:18:34.422Z,6.96
2023-12-22T02:19:34.441Z,6.91
2023-12-22T02:20:34.440Z,6.87
2023-12-22T02:21:34.462Z,6.87
2023-12-22T02:22:34.491Z,6.86
2023-12-22T02:23:34.486Z,6.85
2023-12-22T02:24:34.516Z,6.72
2023-12-22T02:25:34.584Z,6.57
2023-12-22T02:26:34.554Z,6.56
2023-12-22T02:27:34.572Z,6.51
2023-12-22T02:28:34.637Z,6.41
2023-12-22T02:29:34.622Z,6.32
2023-12-22T02:30:34.644Z,6.20
2023-12-22T02:31:34.695Z,6.08
2023-12-22T02:32:34.699Z,6.03
2023-12-22T02:33:34.693Z,5.94
2023-12-22T02:34:34.759Z,5.86
2023-12-22T02:35:34.762Z,5.79
2023-12-22T02:36:34.781Z,5.73
2023-12-22T02:37:34.789Z,5.69
2023-12-22T02:38:34.809Z,5.64
2023-12-22T02:39:46.068Z,5.64
2023-12-22T02:40:34.961Z,5.57
2023-12-22T02:41:34.834Z,5.48
2023-12-22T02:42:34.865Z,5.43
2023-12-22T02:43:34.921Z,5.42
2023-12-22T02:44:34.906Z,5.44
2023-12-22T02:45:34.909Z,5.46
2023-12-22T02:46:34.974Z,5.45
2023-12-22T02:47:34.963Z,5.42
2023-12-22T02:48:35.035Z,5.39
2023-12-22T02:49:35.011Z,5.42
2023-12-22T02:50:35.006Z,5.45
2023-12-22T02:51:35.060Z,5.44
2023-12-22T02:52:35.093Z,5.39
2023-12-22T02:53:35.061Z,5.34
2023-12-22T02:54:35.088Z,5.29
2023-12-22T02:55:35.159Z,5.27
2023-12-22T02:56:35.118Z,5.27
2023-12-22T02:57:35.133Z,5.26
2023-12-22T02:58:35.237Z,5.28
2023-12-22T02:59:35.205Z,5.32
2023-12-22T03:00:35.258Z,5.36
2023-12-22T03:01:35.276Z,5.43
2023-12-22T03:02:35.237Z,5.52
2023-12-22T03:03:35.282Z,5.59
2023-12-22T03:04:35.391Z,5.66
2023-12-22T03:05:35.330Z,5.70
2023-12-22T03:06:35.346Z,5.73
2023-12-22T03:07:35.440Z,5.77
2023-12-22T03:08:35.384Z,5.78
2023-12-22T03:09:38.544Z,5.66
2023-12-22T03:10:35.437Z,5.58
2023-12-22T03:11:35.414Z,5.54
2023-12-22T03:12:35.427Z,5.46
2023-12-22T03:13:35.544Z,5.34
2023-12-22T03:14:35.461Z,5.21
2023-12-22T03:15:35.520Z,5.13
2023-12-22T03:16:35.586Z,5.08
2023-12-22T03:17:35.584Z,5.02
2023-12-22T03:18:35.615Z,4.98
2023-12-22T03:19:35.591Z,4.98
2023-12-22T03:20:35.570Z,4.96
2023-12-22T03:21:35.601Z,4.97
2023-12-22T03:22:35.658Z,5.04
2023-12-22T03:23:35.655Z,5.09
2023-12-22T03:24:35.653Z,5.13
2023-12-22T03:25:35.726Z,5.19
2023-12-22T03:26:36.571Z,5.19
2023-12-22T03:27:35.711Z,5.18
2023-12-22T03:28:36.675Z,5.22
2023-12-22T03:29:35.731Z,5.25
2023-12-22T03:30:35.801Z,5.25
